Time;durP1;ratioP1;P1;durP2;ratioP2;P2;SDS_P1;SDS_P2;PMS_P1;PMS_P2;Temp;Humidity;BMP_temperature;BMP_pressure;BME280_temperature;BME280_humidity;BME280_pressure;Samples;Min_cycle;Max_cycle;Signal;HPM_P1;HPM_P2
2023/06/12 00:02:07;;;;;;;8.60;4.97;;;;;;;-145.18;100.00;47031.53;5014016;28;20116;-59
2023/06/12 00:04:33;;;;;;;8.60;4.43;;;;;;;-145.18;100.00;47023.72;5013734;28;20034;-59
2023/06/12 00:06:59;;;;;;;6.57;4.50;;;;;;;-145.18;100.00;47023.72;5014334;28;20129;-59
2023/06/12 00:09:24;;;;;;;6.63;4.30;;;;;;;-145.18;100.00;47023.72;5013007;28;20124;-59
2023/06/12 00:11:50;;;;;;;9.33;5.23;;;;;;;-145.18;100.00;47015.91;5014141;28;20399;-59
2023/06/12 00:14:15;;;;;;;6.67;4.50;;;;;;;-145.18;100.00;47012.00;5014064;28;20030;-59
2023/06/12 00:16:40;;;;;;;6.23;4.60;;;;;;;-145.18;100.00;47025.69;4996561;28;20543;-59
2023/06/12 00:19:06;;;;;;;10.87;4.87;;;;;;;-145.18;100.00;47029.59;5014435;28;20033;-58
2023/06/12 00:21:31;;;;;;;5.77;4.67;;;;;;;-145.18;100.00;47021.78;4996383;28;20041;-59
2023/06/12 00:23:57;;;;;;;7.40;4.70;;;;;;;-145.18;100.00;47023.72;5013866;28;20041;-59
2023/06/12 00:26:22;;;;;;;7.73;4.50;;;;;;;-145.18;100.00;47015.91;5013894;28;20033;-59
2023/06/12 00:28:47;;;;;;;7.63;3.93;;;;;;;-145.18;100.00;47027.63;4995934;28;20057;-59
2023/06/12 00:31:13;;;;;;;10.60;4.60;;;;;;;-145.18;100.00;47035.44;5005130;28;20519;-59
2023/06/12 00:33:40;;;;;;;6.37;4.53;;;;;;;-145.18;100.00;47025.69;5014097;28;20068;-59
2023/06/12 00:36:06;;;;;;;7.00;4.53;;;;;;;-145.18;100.00;47027.63;5013909;28;20039;-59
2023/06/12 00:38:34;;;;;;;6.90;4.40;;;;;;;-145.18;100.00;47025.69;5014263;28;20045;-59
2023/06/12 00:40:59;;;;;;;8.00;4.20;;;;;;;-145.18;100.00;47031.53;4996694;28;20120;-58
2023/06/12 00:43:25;;;;;;;6.90;4.63;;;;;;;-145.18;100.00;47035.44;5018365;28;20605;-59
2023/06/12 00:45:50;;;;;;;8.97;5.17;;;;;;;-145.18;100.00;47029.59;5022097;28;20088;-59
2023/06/12 00:48:16;;;;;;;5.67;4.27;;;;;;;-145.18;100.00;47025.69;5011686;28;20376;-59
2023/06/12 00:50:44;;;;;;;6.40;4.47;;;;;;;-145.18;100.00;47033.50;5013117;28;20494;-59
2023/06/12 00:53:10;;;;;;;7.43;4.50;;;;;;;-145.18;100.00;47043.28;4997491;28;20030;-59
2023/06/12 00:55:35;;;;;;;5.40;4.10;;;;;;;-145.18;100.00;47033.50;5013412;28;20057;-59
2023/06/12 00:58:01;;;;;;;8.20;4.73;;;;;;;-145.18;100.00;47035.44;5013587;28;20045;-59
2023/06/12 01:00:27;;;;;;;10.83;5.40;;;;;;;-145.18;100.00;47033.50;5013034;28;20033;-61
2023/06/12 01:03:06;;;;;;;7.20;4.87;;;;;;;-145.18;100.00;47049.13;5013325;28;20032;-61
2023/06/12 01:05:37;;;;;;;6.77;4.50;;;;;;;-145.18;100.00;47031.53;5013464;28;20132;-61
2023/06/12 01:08:27;;;;;;;7.97;4.60;;;;;;;-145.18;100.00;47031.53;5013678;28;20030;-61
2023/06/12 01:10:57;;;;;;;11.43;4.97;;;;;;;-145.18;100.00;47045.22;5013565;28;20098;-61
2023/06/12 01:13:22;;;;;;;6.23;4.30;;;;;;;-145.18;100.00;47041.31;5012633;28;20061;-61
2023/06/12 01:15:48;;;;;;;6.13;4.40;;;;;;;-145.18;100.00;47027.63;5012817;28;20439;-61
2023/06/12 01:18:15;;;;;;;9.20;4.87;;;;;;;-145.18;100.00;47049.13;5013013;28;20442;-61
2023/06/12 01:20:40;;;;;;;9.30;4.53;;;;;;;-145.18;100.00;47037.41;5012424;28;20549;-61
2023/06/12 01:23:18;;;;;;;11.10;5.33;;;;;;;-145.18;100.00;47035.44;5013124;28;20029;-61
2023/06/12 01:26:27;;;;;;;6.33;4.60;;;;;;;-145.18;100.00;47039.34;5012616;28;20502;-61
2023/06/12 01:29:04;;;;;;;6.73;4.67;;;;;;;-145.18;100.00;47060.84;5011829;28;20037;-61
2023/06/12 01:32:02;;;;;;;8.77;4.30;;;;;;;-145.18;100.00;47047.19;5012312;28;20041;-61
2023/06/12 01:34:36;;;;;;;5.47;4.30;;;;;;;-145.18;100.00;47037.41;4985300;28;20037;-61
2023/06/12 01:37:15;;;;;;;8.20;4.43;;;;;;;-145.18;100.00;47047.19;5012577;28;20026;-61
2023/06/12 01:39:45;;;;;;;8.90;5.27;;;;;;;-145.18;100.00;47039.34;5000115;28;20067;-61
2023/06/12 01:42:11;;;;;;;6.37;4.53;;;;;;;-145.18;100.00;47051.09;5012277;28;20415;-61
2023/06/12 01:44:36;;;;;;;8.77;4.97;;;;;;;-145.18;100.00;47049.13;5012688;28;20034;-61
2023/06/12 01:47:03;;;;;;;7.50;5.00;;;;;;;-145.18;100.00;47055.00;5012274;28;20882;-61
2023/06/12 01:49:28;;;;;;;7.07;4.63;;;;;;;-145.18;100.00;47051.09;5012376;28;20053;-61
2023/06/12 01:51:53;;;;;;;8.63;5.07;;;;;;;-145.18;100.00;47041.31;5012214;28;20034;-61
2023/06/12 01:54:22;;;;;;;7.53;4.93;;;;;;;-145.18;100.00;47051.09;5012076;28;20250;-61
2023/06/12 01:56:48;;;;;;;5.53;4.57;;;;;;;-145.18;100.00;47053.03;5011804;28;20030;-61
2023/06/12 01:59:14;;;;;;;6.83;4.53;;;;;;;-145.18;100.00;47053.03;5019485;28;20060;-61
2023/06/12 02:01:39;;;;;;;7.03;5.03;;;;;;;-145.18;100.00;47053.03;5017423;28;20040;-61
2023/06/12 02:04:06;;;;;;;12.43;5.07;;;;;;;-145.18;100.00;47039.34;5012729;28;20038;-61
2023/06/12 02:06:32;;;;;;;10.40;5.30;;;;;;;-145.18;100.00;47043.28;5012057;28;20132;-61
2023/06/12 02:08:57;;;;;;;8.63;5.43;;;;;;;-145.18;100.00;47051.09;5012572;28;20380;-61
2023/06/12 02:11:22;;;;;;;10.33;5.07;;;;;;;-145.18;100.00;47055.00;5011668;28;20487;-58
2023/06/12 02:13:48;;;;;;;8.03;4.93;;;;;;;-145.18;100.00;47056.94;5012276;28;20030;-59
2023/06/12 02:16:14;;;;;;;8.30;4.90;;;;;;;-145.18;100.00;47051.09;5011961;28;20073;-59
2023/06/12 02:18:40;;;;;;;7.80;5.00;;;;;;;-145.18;100.00;47049.13;5008967;28;20510;-59
2023/06/12 02:21:05;;;;;;;7.87;5.10;;;;;;;-145.18;100.00;47055.00;5012034;28;20042;-59
2023/06/12 02:23:31;;;;;;;8.90;4.83;;;;;;;-145.18;100.00;47051.09;5011883;28;20026;-58
2023/06/12 02:25:56;;;;;;;8.60;5.40;;;;;;;-145.18;100.00;47062.81;5011779;28;20065;-59
2023/06/12 02:28:22;;;;;;;8.47;4.93;;;;;;;-145.18;100.00;47062.81;4994570;28;20068;-58
2023/06/12 02:30:47;;;;;;;6.63;5.27;;;;;;;-145.18;100.00;47062.81;5012415;28;20445;-58
2023/06/12 02:33:13;;;;;;;8.83;5.50;;;;;;;-145.18;100.00;47064.75;5015046;28;20026;-59
2023/06/12 02:35:42;;;;;;;10.20;5.23;;;;;;;-145.18;100.00;47056.94;5000290;28;20140;-59
2023/06/12 02:38:07;;;;;;;6.93;5.13;;;;;;;-145.18;100.00;47062.81;5018516;28;20026;-59
2023/06/12 02:40:33;;;;;;;11.87;4.90;;;;;;;-145.18;100.00;47055.00;5017750;28;20041;-59
2023/06/12 02:42:58;;;;;;;7.23;4.50;;;;;;;-145.18;100.00;47072.56;5000727;28;20095;-59
2023/06/12 02:45:25;;;;;;;7.67;5.17;;;;;;;-145.18;100.00;47064.75;5018541;28;20061;-58
2023/06/12 02:47:50;;;;;;;7.70;6.27;;;;;;;-145.18;100.00;47078.44;5022647;28;20057;-59
2023/06/12 02:50:17;;;;;;;9.07;5.23;;;;;;;-145.18;100.00;47072.56;5018859;28;20100;-59
2023/06/12 02:52:42;;;;;;;8.37;5.50;;;;;;;-145.18;100.00;47070.63;5017511;28;20030;-59
2023/06/12 02:55:07;;;;;;;9.17;5.57;;;;;;;-145.18;100.00;47080.38;5019591;28;20044;-59
2023/06/12 02:57:34;;;;;;;7.40;5.37;;;;;;;-145.18;100.00;47088.19;5018160;28;20502;-59
2023/06/12 02:59:59;;;;;;;7.97;5.50;;;;;;;-145.18;100.00;47066.72;5018188;28;20080;-59
2023/06/12 03:02:25;;;;;;;10.23;5.43;;;;;;;-145.18;100.00;47072.56;5031401;28;20076;-59
2023/06/12 03:04:51;;;;;;;8.20;5.37;;;;;;;-145.18;100.00;47086.25;5017963;28;20511;-58
2023/06/12 03:07:16;;;;;;;8.23;5.63;;;;;;;-145.18;100.00;47078.44;5030857;28;20041;-59
2023/06/12 03:09:43;;;;;;;6.77;5.10;;;;;;;-145.18;100.00;47074.53;5018129;28;20048;-59
2023/06/12 03:12:08;;;;;;;7.70;5.53;;;;;;;-145.18;100.00;47074.53;5017079;28;20053;-59
2023/06/12 03:14:34;;;;;;;8.20;5.63;;;;;;;-145.18;100.00;47084.28;5005426;28;20529;-59
2023/06/12 03:16:59;;;;;;;9.17;5.20;;;;;;;-145.18;100.00;47068.66;5017657;28;20125;-59
2023/06/12 03:19:25;;;;;;;6.33;5.00;;;;;;;-145.18;100.00;47080.38;5000406;28;20052;-59
2023/06/12 03:21:50;;;;;;;7.43;5.17;;;;;;;-145.18;100.00;47094.06;5017559;28;20120;-61
2023/06/12 03:24:16;;;;;;;11.77;5.37;;;;;;;-145.18;100.00;47074.53;5018415;28;20036;-61
2023/06/12 03:26:41;;;;;;;8.30;5.13;;;;;;;-145.18;100.00;47078.44;5000650;28;20108;-61
2023/06/12 03:29:07;;;;;;;7.30;5.13;;;;;;;-145.18;100.00;47074.53;5000473;28;20081;-61
2023/06/12 03:31:33;;;;;;;11.57;5.00;;;;;;;-145.18;100.00;47084.28;5017901;28;20025;-61
2023/06/12 03:33:58;;;;;;;10.33;5.00;;;;;;;-145.18;100.00;47088.19;5017863;28;20504;-61
2023/06/12 03:36:25;;;;;;;11.40;4.83;;;;;;;-145.18;100.00;47078.44;4998964;28;20038;-61
2023/06/12 03:38:51;;;;;;;8.80;5.37;;;;;;;-145.18;100.00;47105.78;4999789;28;20109;-61
2023/06/12 03:41:17;;;;;;;8.73;5.50;;;;;;;-145.18;100.00;47096.00;5017200;28;20075;-61
2023/06/12 03:43:43;;;;;;;7.37;5.37;;;;;;;-145.18;100.00;47113.59;5015289;28;20026;-61
2023/06/12 03:46:10;;;;;;;9.40;6.20;;;;;;;-145.18;100.00;47113.59;4995584;28;20502;-61
2023/06/12 03:48:35;;;;;;;9.20;6.40;;;;;;;-145.18;100.00;47117.50;4997112;28;20061;-61
2023/06/12 03:51:00;;;;;;;8.60;6.33;;;;;;;-145.18;100.00;47121.41;5019505;28;20089;-61
2023/06/12 03:53:26;;;;;;;9.47;6.50;;;;;;;-145.18;100.00;47160.47;5014346;28;20034;-61
2023/06/12 03:55:51;;;;;;;8.57;6.27;;;;;;;-145.18;100.00;47164.38;5013477;28;20044;-61
2023/06/12 03:58:17;;;;;;;9.03;7.07;;;;;;;-145.18;100.00;47174.16;5017835;28;20034;-61
2023/06/12 04:00:47;;;;;;;10.30;7.07;;;;;;;-145.18;100.00;47144.84;5003185;28;20034;-61
2023/06/12 04:03:17;;;;;;;10.83;7.17;;;;;;;-145.18;100.00;47189.78;5019886;28;20503;-61
2023/06/12 04:05:47;;;;;;;11.00;6.53;;;;;;;-145.18;100.00;47193.69;5013918;28;20046;-61
2023/06/12 04:08:12;;;;;;;8.17;6.23;;;;;;;-145.18;100.00;47181.97;4997383;28;20060;-61
2023/06/12 04:10:38;;;;;;;9.23;6.70;;;;;;;-145.18;100.00;47180.03;5014139;28;20466;-61
2023/06/12 04:13:04;;;;;;;8.43;5.97;;;;;;;-145.18;100.00;47164.38;5011857;28;20144;-61
2023/06/12 04:15:30;;;;;;;12.07;6.80;;;;;;;-145.18;100.00;47164.38;5013821;28;20179;-61
2023/06/12 04:17:57;;;;;;;8.97;6.40;;;;;;;-145.18;100.00;47178.06;5013709;28;20046;-61
2023/06/12 04:20:23;;;;;;;8.50;6.67;;;;;;;-145.18;100.00;47178.06;4997302;28;20116;-61
2023/06/12 04:22:49;;;;;;;10.23;7.20;;;;;;;-145.18;100.00;47178.06;5013940;28;20080;-61
2023/06/12 04:25:15;;;;;;;11.00;7.50;;;;;;;-145.18;100.00;47152.66;5014084;28;20041;-61
2023/06/12 04:27:42;;;;;;;9.90;6.73;;;;;;;-145.18;100.00;47162.44;5013188;28;20049;-61
2023/06/12 04:30:09;;;;;;;12.20;8.20;;;;;;;-145.18;100.00;47174.16;5014247;28;20044;-59
2023/06/12 04:32:35;;;;;;;9.57;6.80;;;;;;;-145.18;100.00;47164.38;5018891;28;20475;-59
2023/06/12 04:35:01;;;;;;;7.33;6.20;;;;;;;-145.18;100.00;47158.53;4997772;28;20092;-59
2023/06/12 04:37:27;;;;;;;9.97;7.30;;;;;;;-145.18;100.00;47183.94;5015027;28;20064;-58
2023/06/12 04:39:53;;;;;;;9.57;6.63;;;;;;;-145.18;100.00;47154.63;5028740;28;20424;-59
2023/06/12 04:42:18;;;;;;;10.33;6.93;;;;;;;-145.18;100.00;47160.47;5014345;28;20365;-59
2023/06/12 04:44:46;;;;;;;9.00;6.57;;;;;;;-145.18;100.00;47176.09;4988161;28;20044;-59
2023/06/12 04:47:14;;;;;;;7.93;6.43;;;;;;;-145.18;100.00;47160.47;5013127;28;20026;-58
2023/06/12 04:49:43;;;;;;;9.87;6.50;;;;;;;-145.18;100.00;47158.53;4980692;28;20037;-58
2023/06/12 04:52:09;;;;;;;9.37;6.60;;;;;;;-145.18;100.00;47144.84;5012906;28;20103;-58
2023/06/12 04:54:41;;;;;;;8.93;5.97;;;;;;;-145.18;100.00;47119.47;5011855;28;20471;-59
2023/06/12 04:57:08;;;;;;;8.60;6.70;;;;;;;-145.18;100.00;47111.66;5016284;28;20110;-58
2023/06/12 04:59:37;;;;;;;11.07;6.43;;;;;;;-145.18;100.00;47105.78;5012848;28;20033;-59
2023/06/12 05:02:03;;;;;;;9.70;6.57;;;;;;;-145.18;100.00;47097.97;4996207;28;20433;-58
2023/06/12 05:04:30;;;;;;;9.43;6.40;;;;;;;-145.18;100.00;47103.81;5011783;28;20546;-59
2023/06/12 05:06:56;;;;;;;11.40;6.30;;;;;;;-145.18;100.00;47097.97;5011576;28;20045;-58
2023/06/12 05:09:21;;;;;;;8.03;6.27;;;;;;;-145.18;100.00;47086.25;5011751;28;20113;-58
2023/06/12 05:11:47;;;;;;;9.80;5.73;;;;;;;-145.18;100.00;47088.19;5014062;28;20029;-58
2023/06/12 05:14:12;;;;;;;7.73;5.90;;;;;;;-145.18;100.00;47072.56;5013019;28;20454;-58
2023/06/12 05:16:38;;;;;;;15.00;7.23;;;;;;;-145.18;100.00;47078.44;5013343;28;20033;-58
2023/06/12 05:19:03;;;;;;;10.10;6.10;;;;;;;-145.18;100.00;47078.44;5012097;28;20458;-58
2023/06/12 05:21:28;;;;;;;7.93;5.67;;;;;;;-145.18;100.00;47074.53;5010976;28;20026;-59
2023/06/12 05:23:55;;;;;;;8.33;5.97;;;;;;;-145.18;100.00;47068.66;5011545;28;20120;-59
2023/06/12 05:26:21;;;;;;;8.07;5.90;;;;;;;-145.18;100.00;47068.66;5011152;28;20026;-58
2023/06/12 05:28:46;;;;;;;10.67;6.47;;;;;;;-145.18;100.00;47072.56;5011429;28;20041;-58
2023/06/12 05:31:12;;;;;;;8.27;6.13;;;;;;;-145.18;100.00;47062.81;5010552;28;20471;-59
2023/06/12 05:33:38;;;;;;;8.23;6.23;;;;;;;-145.18;100.00;47066.72;4993516;28;20033;-59
2023/06/12 05:36:04;;;;;;;8.70;6.20;;;;;;;-145.18;100.00;47060.84;5011999;28;20091;-58
2023/06/12 05:38:29;;;;;;;6.87;5.50;;;;;;;-145.18;100.00;47078.44;5011476;28;20034;-59
2023/06/12 05:40:55;;;;;;;8.50;6.10;;;;;;;-145.18;100.00;47078.44;5020080;28;20034;-61
2023/06/12 05:43:20;;;;;;;9.23;6.63;;;;;;;-145.18;100.00;47047.19;5012484;28;20109;-61
2023/06/12 05:45:46;;;;;;;9.57;6.10;;;;;;;-145.18;100.00;47066.72;5012366;28;20480;-61
2023/06/12 05:48:11;;;;;;;8.13;6.37;;;;;;;-145.18;100.00;47060.84;5012467;28;20025;-61
2023/06/12 05:50:36;;;;;;;16.10;5.90;;;;;;;-145.18;100.00;47043.28;5012510;28;20495;-61
2023/06/12 05:53:02;;;;;;;9.43;5.83;;;;;;;-145.18;100.00;47055.00;5012263;28;20048;-62
2023/06/12 05:55:27;;;;;;;8.17;5.80;;;;;;;-145.18;100.00;47055.00;4995329;28;20540;-61
2023/06/12 05:57:53;;;;;;;7.57;5.20;;;;;;;-145.18;100.00;47045.22;5012589;28;20502;-61
2023/06/12 06:00:21;;;;;;;7.67;5.37;;;;;;;-145.18;100.00;47043.28;4994746;28;20403;-61
2023/06/12 06:02:46;;;;;;;8.47;5.43;;;;;;;-145.18;100.00;47047.19;5012665;28;20029;-61
2023/06/12 06:05:12;;;;;;;9.93;5.37;;;;;;;-145.18;100.00;47043.28;5012297;28;20049;-62
2023/06/12 06:07:38;;;;;;;6.77;5.33;;;;;;;-145.18;100.00;47043.28;4993669;28;20507;-61
2023/06/12 06:10:05;;;;;;;9.20;5.43;;;;;;;-145.18;100.00;47053.03;4994753;28;20033;-61
2023/06/12 06:12:30;;;;;;;6.07;4.63;;;;;;;-145.18;100.00;47047.19;5012184;28;20045;-61
2023/06/12 06:14:56;;;;;;;8.90;5.00;;;;;;;-145.18;100.00;47035.44;4994071;28;20049;-61
2023/06/12 06:17:21;;;;;;;7.07;4.97;;;;;;;-145.18;100.00;47033.50;5012293;28;20026;-61
2023/06/12 06:19:46;;;;;;;8.13;5.07;;;;;;;-145.18;100.00;47023.72;5014234;28;20475;-61
2023/06/12 06:22:12;;;;;;;8.90;5.50;;;;;;;-145.18;100.00;47037.41;4997227;28;20117;-61
2023/06/12 06:24:37;;;;;;;10.27;4.90;;;;;;;-145.18;100.00;47019.81;5013906;28;20036;-61
2023/06/12 06:27:03;;;;;;;7.23;4.97;;;;;;;-145.18;100.00;47023.72;5014947;28;20418;-61
2023/06/12 06:29:28;;;;;;;7.23;4.73;;;;;;;-145.18;100.00;47025.69;5011637;28;20026;-61
2023/06/12 06:31:54;;;;;;;7.30;4.63;;;;;;;-145.18;100.00;47019.81;5012228;28;20030;-61
2023/06/12 06:34:20;;;;;;;7.07;5.03;;;;;;;-145.18;100.00;47023.72;5011561;28;20038;-61
2023/06/12 06:36:45;;;;;;;7.63;4.43;;;;;;;-145.18;100.00;47021.78;5010152;28;20487;-61
2023/06/12 06:39:11;;;;;;;10.63;5.13;;;;;;;-145.18;100.00;47031.53;5011358;28;20038;-61
2023/06/12 06:41:37;;;;;;;9.87;4.77;;;;;;;-145.18;100.00;47017.88;5012081;28;20387;-61
2023/06/12 06:44:03;;;;;;;7.53;5.07;;;;;;;-145.18;100.00;47019.81;5011792;28;20053;-61
2023/06/12 06:46:28;;;;;;;7.80;5.20;;;;;;;-145.18;100.00;47027.63;5011392;28;20053;-61
2023/06/12 06:48:54;;;;;;;6.87;4.50;;;;;;;-145.18;100.00;47023.72;5004270;28;20117;-61
2023/06/12 06:51:19;;;;;;;8.67;5.10;;;;;;;-145.18;100.00;47010.06;5011001;28;20088;-61
2023/06/12 06:53:45;;;;;;;6.33;4.87;;;;;;;-145.18;100.00;47031.53;4992369;28;20038;-61
2023/06/12 06:56:10;;;;;;;9.00;5.00;;;;;;;-145.18;100.00;47013.97;4977517;28;20053;-61
2023/06/12 06:58:35;;;;;;;13.33;4.80;;;;;;;-145.18;100.00;47012.00;5020703;28;20391;-61
2023/06/12 07:01:01;;;;;;;6.30;5.23;;;;;;;-145.18;100.00;47010.06;5011478;28;20439;-61
2023/06/12 07:03:27;;;;;;;7.03;4.63;;;;;;;-145.18;100.00;47015.91;5010462;28;20022;-61
2023/06/12 07:05:53;;;;;;;9.83;5.30;;;;;;;-145.18;100.00;47012.00;5010071;28;20526;-61
2023/06/12 07:08:18;;;;;;;7.13;4.67;;;;;;;-145.18;100.00;46992.47;5011510;28;20025;-61
2023/06/12 07:10:44;;;;;;;7.33;4.67;;;;;;;-145.18;100.00;47008.09;5011248;28;20430;-62
2023/06/12 07:13:09;;;;;;;8.80;4.63;;;;;;;-145.18;100.00;47008.09;5010944;28;20029;-61
2023/06/12 07:15:35;;;;;;;9.07;5.03;;;;;;;-145.18;100.00;47004.19;5010993;28;20372;-61
2023/06/12 07:18:00;;;;;;;5.67;4.43;;;;;;;-145.18;100.00;47008.09;5011308;28;20117;-61
2023/06/12 07:20:26;;;;;;;10.73;5.10;;;;;;;-145.18;100.00;47010.06;5013984;28;20080;-61
2023/06/12 07:22:51;;;;;;;7.47;4.97;;;;;;;-145.18;100.00;46990.53;4997184;28;20072;-61
2023/06/12 07:25:17;;;;;;;6.53;4.23;;;;;;;-145.18;100.00;46998.34;5017468;28;20479;-61
2023/06/12 07:27:43;;;;;;;9.30;5.00;;;;;;;-145.18;100.00;47002.25;4996410;28;20025;-62
2023/06/12 07:30:09;;;;;;;8.63;4.87;;;;;;;-145.18;100.00;46996.38;5014891;28;20029;-61
2023/06/12 07:32:35;;;;;;;8.60;5.20;;;;;;;-145.18;100.00;47006.16;5027983;28;20025;-61
2023/06/12 07:35:00;;;;;;;11.13;4.50;;;;;;;-145.18;100.00;46992.47;5014466;28;20153;-61
2023/06/12 07:37:25;;;;;;;5.20;4.53;;;;;;;-145.18;100.00;46980.75;5014172;28;20034;-61
2023/06/12 07:39:51;;;;;;;6.60;5.13;;;;;;;-145.18;100.00;46992.47;5014363;28;20075;-61
2023/06/12 07:42:16;;;;;;;7.73;4.90;;;;;;;-145.18;100.00;46986.63;5014637;28;20037;-61
2023/06/12 07:44:42;;;;;;;7.80;4.73;;;;;;;-145.18;100.00;46992.47;5014400;28;20026;-61
2023/06/12 07:47:07;;;;;;;9.67;5.13;;;;;;;-145.18;100.00;46978.81;5013944;28;20022;-61
2023/06/12 07:49:33;;;;;;;7.67;5.20;;;;;;;-145.18;100.00;46978.81;4996498;28;20046;-62
2023/06/12 07:51:59;;;;;;;7.17;4.70;;;;;;;-145.18;100.00;46961.22;5014505;28;20033;-61
2023/06/12 07:54:24;;;;;;;7.50;5.13;;;;;;;-145.18;100.00;46965.13;5014379;28;20030;-62
2023/06/12 07:56:51;;;;;;;10.13;5.50;;;;;;;-145.18;100.00;46961.22;5014053;28;20049;-62
2023/06/12 07:59:17;;;;;;;7.10;5.33;;;;;;;-145.18;100.00;46965.13;5000809;28;20030;-62
2023/06/12 08:01:43;;;;;;;11.37;4.87;;;;;;;-145.18;100.00;46949.50;5014074;28;20030;-59
2023/06/12 08:04:11;;;;;;;7.40;5.00;;;;;;;-145.18;100.00;46955.34;5014365;28;20429;-59
2023/06/12 08:06:38;;;;;;;9.37;5.13;;;;;;;-145.18;100.00;46947.53;5014418;28;20042;-59
2023/06/12 08:09:05;;;;;;;9.35;4.78;;;;;;;-145.18;100.00;46955.34;5014237;28;20044;-59
2023/06/12 08:11:30;;;;;;;7.03;5.00;;;;;;;-145.18;100.00;46957.31;5013688;28;20036;-59
2023/06/12 08:13:56;;;;;;;10.50;5.00;;;;;;;-145.18;100.00;46957.31;5014386;28;20635;-60
2023/06/12 08:16:25;;;;;;;6.10;4.70;;;;;;;-145.18;100.00;46947.53;5013322;28;20034;-59
2023/06/12 08:18:51;;;;;;;10.50;4.80;;;;;;;-145.18;100.00;46943.63;5013390;28;20021;-59
2023/06/12 08:21:16;;;;;;;8.75;5.32;;;;;;;-145.18;100.00;46945.59;5013440;28;20013;-59
2023/06/12 08:23:42;;;;;;;7.60;4.82;;;;;;;-145.18;100.00;46931.91;5013515;28;20018;-59
2023/06/12 08:26:08;;;;;;;8.95;5.18;;;;;;;-145.18;100.00;46937.78;5013354;28;20022;-59
2023/06/12 08:28:37;;;;;;;7.93;5.30;;;;;;;-145.18;100.00;46933.88;5013366;28;20491;-59
2023/06/12 08:31:04;;;;;;;10.50;5.00;;;;;;;-145.18;100.00;46935.81;5009015;28;20056;-59
2023/06/12 08:33:30;;;;;;;9.60;5.32;;;;;;;-145.18;100.00;46939.72;5013529;28;20018;-59
2023/06/12 08:35:56;;;;;;;7.47;5.05;;;;;;;-145.18;100.00;46928.00;5013410;28;20034;-59
2023/06/12 08:38:22;;;;;;;7.03;5.22;;;;;;;-145.18;100.00;46928.00;5015223;28;20026;-59
2023/06/12 08:40:47;;;;;;;7.82;5.07;;;;;;;-145.18;100.00;46937.78;5013652;28;20026;-59
2023/06/12 08:43:12;;;;;;;6.50;5.20;;;;;;;-145.18;100.00;46947.53;5013719;28;20060;-59
2023/06/12 08:45:45;;;;;;;4.90;4.40;;;;;;;-145.18;100.00;46951.44;4995605;28;20395;-59
2023/06/12 08:48:12;;;;;;;8.10;4.93;;;;;;;-145.18;100.00;46933.88;5013408;28;20030;-59
2023/06/12 08:50:38;;;;;;;6.20;4.85;;;;;;;-145.18;100.00;46945.59;5012676;28;20033;-60
2023/06/12 08:53:04;;;;;;;6.38;5.20;;;;;;;-145.18;100.00;46951.44;4996138;28;20108;-59
2023/06/12 08:55:32;;;;;;;5.72;4.55;;;;;;;-145.18;100.00;46943.63;4995666;28;20064;-59
2023/06/12 08:57:58;;;;;;;7.05;4.22;;;;;;;-145.18;100.00;46949.50;5012922;28;20404;-59
2023/06/12 09:00:24;;;;;;;5.00;3.85;;;;;;;-145.18;100.00;46949.50;5012821;28;20026;-59
2023/06/12 09:02:54;;;;;;;6.25;4.70;;;;;;;-145.18;100.00;46957.31;5012618;28;20026;-60
2023/06/12 09:05:26;;;;;;;7.20;4.07;;;;;;;-145.18;100.00;46963.19;5012634;28;20459;-59
2023/06/12 09:07:52;;;;;;;7.72;4.43;;;;;;;-145.18;100.00;46953.41;5013245;28;20029;-59
2023/06/12 09:10:18;;;;;;;7.63;4.38;;;;;;;-145.18;100.00;46945.59;5012747;28;20029;-59
2023/06/12 09:12:44;;;;;;;7.78;4.57;;;;;;;-145.18;100.00;46949.50;5012563;28;20030;-59
2023/06/12 09:15:20;;;;;;;5.18;4.22;;;;;;;-145.18;100.00;46924.09;5012733;28;20030;-59
2023/06/12 09:17:50;;;;;;;6.60;4.57;;;;;;;-145.18;100.00;46914.34;5012471;28;20112;-59
2023/06/12 09:20:30;;;;;;;7.30;4.97;;;;;;;-145.18;100.00;46912.38;5011778;28;20072;-59
2023/06/12 09:23:00;;;;;;;8.68;4.15;;;;;;;-145.18;100.00;46906.53;5012391;28;20096;-59
2023/06/12 09:25:35;;;;;;;7.22;4.22;;;;;;;-145.18;100.00;46902.63;5012556;28;20522;-59
2023/06/12 09:28:03;;;;;;;8.50;3.85;;;;;;;-145.18;100.00;46906.53;5012254;28;20026;-59
2023/06/12 09:30:33;;;;;;;6.47;4.55;;;;;;;-145.18;100.00;46894.81;5012333;28;20061;-59
2023/06/12 09:33:03;;;;;;;5.10;4.30;;;;;;;-145.18;100.00;46879.19;5012759;28;20022;-59
2023/06/12 09:35:28;;;;;;;5.43;3.78;;;;;;;-145.18;100.00;46892.84;5012495;28;20026;-59
2023/06/12 09:37:55;;;;;;;5.88;4.15;;;;;;;-145.18;100.00;46873.31;5012254;28;20033;-59
2023/06/12 09:40:21;;;;;;;9.35;3.95;;;;;;;-145.18;98.55;46881.13;5012490;28;20060;-59
2023/06/12 09:42:46;;;;;;;5.68;4.22;;;;;;;-145.18;100.00;46887.00;5011895;28;20033;-60
2023/06/12 09:45:17;;;;;;;8.23;3.92;;;;;;;-145.18;100.00;46871.38;5012277;28;20391;-59
2023/06/12 09:47:45;;;;;;;7.00;3.88;;;;;;;-145.18;69.11;46879.19;5011534;28;20471;-59
2023/06/12 09:50:12;;;;;;;5.80;4.10;;;;;;;-145.18;66.18;46867.44;5012041;28;20037;-59
2023/06/12 09:52:40;;;;;;;6.35;4.07;;;;;;;-145.18;66.85;46879.19;5011907;28;20025;-59
2023/06/12 09:55:07;;;;;;;4.68;3.67;;;;;;;-145.18;68.05;46869.41;5012238;28;20029;-59
2023/06/12 09:57:37;;;;;;;5.50;3.40;;;;;;;-145.18;58.59;46879.19;5012074;28;20088;-59
2023/06/12 10:00:08;;;;;;;6.32;3.65;;;;;;;-145.18;58.52;46875.28;5011725;28;20570;-59
2023/06/12 10:02:36;;;;;;;4.55;3.22;;;;;;;-145.18;53.68;46867.44;5012203;28;20084;-59
2023/06/12 10:05:22;;;;;;;8.13;3.90;;;;;;;-145.18;59.59;46863.53;5011377;28;20014;-59
2023/06/12 10:07:52;;;;;;;5.28;3.47;;;;;;;-145.18;52.49;46865.50;5012049;28;20108;-59
2023/06/12 10:10:19;;;;;;;5.25;3.28;;;;;;;-145.18;49.60;46865.50;5011498;28;20076;-59
2023/06/12 10:12:45;;;;;;;6.93;3.28;;;;;;;-145.18;47.53;46851.81;5011806;28;20033;-59
2023/06/12 10:15:15;;;;;;;4.70;3.13;;;;;;;-145.18;45.81;46867.44;5011549;28;20057;-59
2023/06/12 10:17:41;;;;;;;4.03;3.03;;;;;;;-145.18;45.48;46857.69;5011683;28;20052;-59
2023/06/12 10:20:09;;;;;;;6.20;3.40;;;;;;;-145.18;44.45;46855.72;5011450;28;20487;-59
2023/06/12 10:22:34;;;;;;;10.40;4.07;;;;;;;-145.18;46.08;46859.63;5011528;28;20053;-59
2023/06/12 10:25:01;;;;;;;4.30;2.70;;;;;;;-145.18;46.38;46845.97;5011713;28;20057;-59
2023/06/12 10:27:27;;;;;;;6.40;3.28;;;;;;;-145.18;38.67;46840.09;5011417;28;20026;-60
2023/06/12 10:29:57;;;;;;;3.60;2.88;;;;;;;-145.18;38.99;46844.00;5011855;28;20026;-59
2023/06/12 10:32:23;;;;;;;5.90;3.25;;;;;;;-145.18;38.96;46847.91;5011693;28;20112;-59
2023/06/12 10:34:53;;;;;;;3.88;2.90;;;;;;;-145.18;38.60;46853.78;5010912;28;20021;-59
2023/06/12 10:37:22;;;;;;;4.03;3.10;;;;;;;-145.18;37.51;46844.00;4993977;28;20487;-60
2023/06/12 10:39:49;;;;;;;6.22;3.17;;;;;;;-145.18;38.16;46832.28;5011596;28;20029;-59
2023/06/12 10:42:16;;;;;;;8.10;2.95;;;;;;;-145.18;37.63;46844.00;5011583;28;20030;-60
2023/06/12 10:44:47;;;;;;;7.93;3.20;;;;;;;-145.18;37.62;46834.25;5011488;28;20026;-59
2023/06/12 10:47:21;;;;;;;5.32;3.00;;;;;;;-145.18;36.72;46832.28;5011408;28;20018;-59
2023/06/12 10:50:00;;;;;;;4.18;2.75;;;;;;;-145.18;41.89;46832.28;5011450;28;20080;-60
2023/06/12 10:52:26;;;;;;;4.63;3.28;;;;;;;-145.18;37.47;46828.38;5011348;28;20033;-60
2023/06/12 10:55:27;;;;;;;4.07;3.20;;;;;;;-145.18;39.88;46822.53;4995930;28;20030;-59
2023/06/12 10:57:54;;;;;;;6.68;3.40;;;;;;;-145.18;37.87;46836.19;5004425;28;20117;-60
2023/06/12 11:00:28;;;;;;;3.90;2.97;;;;;;;-145.18;36.34;46828.38;5014778;28;20154;-59
2023/06/12 11:02:57;;;;;;;5.90;3.25;;;;;;;-145.18;37.95;46828.38;5015412;28;20025;-59
2023/06/12 11:05:23;;;;;;;4.60;3.58;;;;;;;-145.18;40.02;46822.53;5015234;28;20045;-59
2023/06/12 11:07:49;;;;;;;5.45;3.58;;;;;;;-145.18;39.85;46814.72;5014157;28;20026;-60
2023/06/12 11:10:15;;;;;;;8.70;3.33;;;;;;;-145.18;36.86;46826.44;4997672;28;20114;-59